createdAt,value
2018-09-19T00:00:38.667Z,1013.45
2018-09-19T00:01:38.695Z,1013.45
2018-09-19T00:02:38.718Z,1013.45
2018-09-19T00:03:38.740Z,1013.45
2018-09-19T00:04:38.766Z,1013.50
2018-09-19T00:05:38.791Z,1013.44
2018-09-19T00:06:38.812Z,1013.38
2018-09-19T00:07:38.842Z,1013.42
2018-09-19T00:08:38.861Z,1013.44
2018-09-19T00:09:38.888Z,1013.44
2018-09-19T00:10:38.908Z,1013.48
2018-09-19T00:11:38.936Z,1013.44
2018-09-19T00:12:38.962Z,1013.45
2018-09-19T00:13:38.983Z,1013.42
2018-09-19T00:14:39.008Z,1013.42
2018-09-19T00:15:39.033Z,1013.44
2018-09-19T00:16:39.053Z,1013.47
2018-09-19T00:17:39.077Z,1013.47
2018-09-19T00:18:39.102Z,1013.46
2018-09-19T00:19:39.125Z,1013.46
2018-09-19T00:20:39.150Z,1013.46
2018-09-19T00:21:39.174Z,1013.46
2018-09-19T00:22:39.203Z,1013.50
2018-09-19T00:23:39.221Z,1013.46
2018-09-19T00:24:39.244Z,1013.48
2018-09-19T00:25:39.272Z,1013.49
2018-09-19T00:26:39.294Z,1013.55
2018-09-19T00:27:39.325Z,1013.55
2018-09-19T00:28:39.346Z,1013.55
2018-09-19T00:29:39.366Z,1013.53
2018-09-19T00:30:39.389Z,1013.55
2018-09-19T00:31:39.413Z,1013.56
2018-09-19T00:32:39.442Z,1013.57
2018-09-19T00:33:39.475Z,1013.57
2018-09-19T00:34:39.487Z,1013.60
2018-09-19T00:35:39.518Z,1013.60
2018-09-19T00:36:39.534Z,1013.61
2018-09-19T00:37:39.618Z,1013.62
2018-09-19T00:38:39.582Z,1013.58
2018-09-19T00:39:39.603Z,1013.57
2018-09-19T00:40:39.630Z,1013.53
2018-09-19T00:41:39.652Z,1013.55
2018-09-19T00:42:39.678Z,1013.54
2018-09-19T00:43:39.703Z,1013.54
2018-09-19T00:44:39.727Z,1013.55
2018-09-19T00:45:39.752Z,1013.62
2018-09-19T00:46:39.776Z,1013.60
2018-09-19T00:47:39.797Z,1013.65
2018-09-19T00:48:39.821Z,1013.63
2018-09-19T00:49:39.848Z,1013.63
2018-09-19T00:50:39.877Z,1013.67
2018-09-19T00:51:39.894Z,1013.64
2018-09-19T00:52:39.916Z,1013.67
2018-09-19T00:53:39.944Z,1013.68
2018-09-19T00:54:39.966Z,1013.63
2018-09-19T00:55:39.992Z,1013.63
2018-09-19T00:56:40.020Z,1013.65
2018-09-19T00:57:40.042Z,1013.67
2018-09-19T00:58:40.064Z,1013.65
2018-09-19T00:59:40.085Z,1013.65
2018-09-19T01:00:40.110Z,1013.63
2018-09-19T01:01:40.134Z,1013.64
2018-09-19T01:02:40.166Z,1013.71
2018-09-19T01:03:40.182Z,1013.67
2018-09-19T01:04:40.204Z,1013.69
2018-09-19T01:05:40.231Z,1013.66
2018-09-19T01:06:40.253Z,1013.68
2018-09-19T01:07:40.278Z,1013.66
2018-09-19T01:08:40.303Z,1013.69
2018-09-19T01:09:40.331Z,1013.70
2018-09-19T01:10:40.352Z,1013.69
2018-09-19T01:11:40.374Z,1013.73
2018-09-19T01:12:40.397Z,1013.73
2018-09-19T01:13:40.421Z,1013.73
2018-09-19T01:14:40.445Z,1013.71
2018-09-19T01:15:40.470Z,1013.66
2018-09-19T01:16:40.494Z,1013.68
2018-09-19T01:17:40.516Z,1013.70
2018-09-19T01:18:40.541Z,1013.73
2018-09-19T01:19:40.566Z,1013.71
2018-09-19T01:20:40.593Z,1013.72
2018-09-19T01:21:40.614Z,1013.76
2018-09-19T01:22:40.642Z,1013.79
2018-09-19T01:23:40.666Z,1013.73
2018-09-19T01:24:40.687Z,1013.77
2018-09-19T01:25:40.711Z,1013.83
2018-09-19T01:26:40.734Z,1013.83
2018-09-19T01:27:40.757Z,1013.82
2018-09-19T01:28:40.783Z,1013.82
2018-09-19T01:29:40.807Z,1013.87
2018-09-19T01:30:40.832Z,1013.84
2018-09-19T01:31:40.855Z,1013.88
2018-09-19T01:32:40.880Z,1013.84
2018-09-19T01:33:40.903Z,1013.90
2018-09-19T01:34:40.926Z,1013.86
2018-09-19T01:35:40.950Z,1013.90
2018-09-19T01:36:40.972Z,1013.91
2018-09-19T01:37:40.997Z,1013.91
2018-09-19T01:38:41.022Z,1013.90
2018-09-19T01:39:41.044Z,1013.90
2018-09-19T01:40:41.068Z,1013.90
2018-09-19T01:41:41.098Z,1013.88
2018-09-19T01:42:41.117Z,1013.89
2018-09-19T01:43:41.140Z,1013.91
2018-09-19T01:44:41.170Z,1013.93
2018-09-19T01:45:41.190Z,1013.95
2018-09-19T01:46:41.211Z,1013.98
2018-09-19T01:47:41.237Z,1013.97
2018-09-19T01:48:41.265Z,1013.98
2018-09-19T01:49:41.284Z,1013.96
2018-09-19T01:50:41.307Z,1014.02
2018-09-19T01:51:41.340Z,1014.00
2018-09-19T01:52:41.354Z,1014.00
2018-09-19T01:53:41.383Z,1014.02
2018-09-19T01:54:41.403Z,1014.06
2018-09-19T01:55:41.428Z,1014.04
2018-09-19T01:56:41.453Z,1014.06
2018-09-19T01:57:41.475Z,1014.07
2018-09-19T01:58:41.501Z,1014.10
2018-09-19T01:59:41.526Z,1014.13
2018-09-19T02:00:41.548Z,1014.21
2018-09-19T02:01:41.571Z,1014.17
2018-09-19T02:02:41.599Z,1014.18
2018-09-19T02:03:41.624Z,1014.19
2018-09-19T02:04:41.694Z,1014.22
2018-09-19T02:05:41.669Z,1014.19
2018-09-19T02:06:41.692Z,1014.21
2018-09-19T02:07:41.746Z,1014.25
2018-09-19T02:08:41.742Z,1014.20
2018-09-19T02:09:41.812Z,1014.24
2018-09-19T02:10:41.787Z,1014.23
2018-09-19T02:11:41.814Z,1014.25
2018-09-19T02:12:41.834Z,1014.24
2018-09-19T02:13:41.860Z,1014.28
2018-09-19T02:14:41.882Z,1014.29
2018-09-19T02:15:41.908Z,1014.30
2018-09-19T02:16:41.932Z,1014.33
2018-09-19T02:17:41.954Z,1014.31
2018-09-19T02:18:41.978Z,1014.37
2018-09-19T02:19:42.003Z,1014.28
2018-09-19T02:20:42.026Z,1014.32
2018-09-19T02:21:42.049Z,1014.29
2018-09-19T02:22:42.074Z,1014.37
2018-09-19T02:23:42.098Z,1014.36
2018-09-19T02:24:42.122Z,1014.36
2018-09-19T02:25:42.146Z,1014.38
2018-09-19T02:26:42.175Z,1014.39
2018-09-19T02:27:42.196Z,1014.37
2018-09-19T02:28:42.302Z,1014.35
2018-09-19T02:29:42.241Z,1014.37
2018-09-19T02:30:42.265Z,1014.34
2018-09-19T02:31:42.294Z,1014.37
2018-09-19T02:32:42.314Z,1014.40
2018-09-19T02:33:42.352Z,1014.40
2018-09-19T02:34:42.361Z,1014.39
2018-09-19T02:35:42.386Z,1014.38
2018-09-19T02:36:42.432Z,1014.37
2018-09-19T02:37:42.433Z,1014.33
2018-09-19T02:38:42.456Z,1014.34
2018-09-19T02:39:42.490Z,1014.37
2018-09-19T02:40:42.511Z,1014.37
2018-09-19T02:41:42.531Z,1014.34
2018-09-19T02:42:42.554Z,1014.37
2018-09-19T02:43:42.599Z,1014.31
2018-09-19T02:44:42.599Z,1014.32
2018-09-19T02:45:42.629Z,1014.35
2018-09-19T02:46:42.664Z,1014.33
2018-09-19T02:47:42.674Z,1014.38
2018-09-19T02:48:42.701Z,1014.39
2018-09-19T02:49:42.771Z,1014.37
2018-09-19T02:50:42.744Z,1014.34
2018-09-19T02:51:42.772Z,1014.36
2018-09-19T02:52:42.809Z,1014.33
2018-09-19T02:53:42.815Z,1014.36
2018-09-19T02:54:42.842Z,1014.34
2018-09-19T02:55:42.864Z,1014.31
2018-09-19T02:56:42.887Z,1014.28
2018-09-19T02:57:42.909Z,1014.29
2018-09-19T02:58:42.937Z,1014.30
2018-09-19T02:59:42.961Z,1014.31
2018-09-19T03:00:42.984Z,1014.15
2018-09-19T03:01:43.008Z,1014.16
2018-09-19T03:02:43.030Z,1014.19
2018-09-19T03:03:43.054Z,1014.20
2018-09-19T03:05:43.103Z,1014.18
2018-09-19T03:06:43.127Z,1014.19
2018-09-19T03:07:43.150Z,1014.21
2018-09-19T03:08:43.176Z,1014.18
2018-09-19T03:09:43.198Z,1014.21
2018-09-19T03:10:43.233Z,1014.28
2018-09-19T03:11:43.247Z,1014.30
2018-09-19T03:12:43.270Z,1014.32
2018-09-19T03:13:43.293Z,1014.28
2018-09-19T03:14:43.318Z,1014.32
2018-09-19T03:15:43.341Z,1014.31
2018-09-19T03:16:43.365Z,1014.31
2018-09-19T03:17:43.705Z,1014.30
2018-09-19T03:18:43.415Z,1014.30
2018-09-19T03:19:43.439Z,1014.31
2018-09-19T03:20:43.461Z,1014.31
2018-09-19T03:21:43.486Z,1014.30
2018-09-19T03:22:43.521Z,1014.27
2018-09-19T03:23:43.533Z,1014.31
2018-09-19T03:24:43.583Z,1014.32
2018-09-19T03:25:43.582Z,1014.33
2018-09-19T03:26:43.604Z,1014.37
2018-09-19T03:27:43.629Z,1014.40
2018-09-19T03:28:43.652Z,1014.36
2018-09-19T03:29:43.677Z,1014.39
2018-09-19T03:30:43.701Z,1014.36
2018-09-19T03:31:43.723Z,1014.37
2018-09-19T03:32:43.747Z,1014.35
2018-09-19T03:33:43.773Z,1014.35
2018-09-19T03:34:43.798Z,1014.37
2018-09-19T03:35:43.823Z,1014.39
2018-09-19T03:36:43.844Z,1014.34
2018-09-19T03:37:43.867Z,1014.36
2018-09-19T03:38:43.891Z,1014.35
2018-09-19T03:39:43.920Z,1014.36
2018-09-19T03:40:43.943Z,1014.38
2018-09-19T03:41:43.964Z,1014.37
2018-09-19T03:42:43.989Z,1014.35
2018-09-19T03:43:44.012Z,1014.35
2018-09-19T03:44:44.035Z,1014.35
2018-09-19T03:45:44.057Z,1014.38
2018-09-19T03:46:44.083Z,1014.37
2018-09-19T03:47:44.106Z,1014.36
2018-09-19T03:48:44.129Z,1014.40
2018-09-19T03:49:44.163Z,1014.38
2018-09-19T03:50:44.181Z,1014.38
2018-09-19T03:51:44.202Z,1014.33
2018-09-19T03:52:44.225Z,1014.36
2018-09-19T03:53:44.250Z,1014.36
2018-09-19T03:54:44.274Z,1014.34
2018-09-19T03:55:44.298Z,1014.34
2018-09-19T03:56:44.322Z,1014.37
2018-09-19T03:57:44.343Z,1014.32
2018-09-19T03:58:44.369Z,1014.35
2018-09-19T03:59:44.401Z,1014.37
2018-09-19T04:00:44.417Z,1014.37
2018-09-19T04:01:44.441Z,1014.37
2018-09-19T04:02:44.464Z,1014.36
2018-09-19T04:03:44.493Z,1014.37
2018-09-19T04:04:44.514Z,1014.37
2018-09-19T04:05:44.536Z,1014.43
2018-09-19T04:06:44.559Z,1014.43
2018-09-19T04:07:44.584Z,1014.41
2018-09-19T04:08:44.609Z,1014.44
2018-09-19T04:09:44.631Z,1014.46
2018-09-19T04:10:44.656Z,1014.52
2018-09-19T04:11:44.680Z,1014.51
2018-09-19T04:12:44.740Z,1014.48
2018-09-19T04:13:44.729Z,1014.48
2018-09-19T04:14:44.752Z,1014.49
2018-09-19T04:15:44.780Z,1014.44
2018-09-19T04:16:44.800Z,1014.46
2018-09-19T04:17:44.839Z,1014.48
2018-09-19T04:18:44.849Z,1014.50
2018-09-19T04:19:44.875Z,1014.45
2018-09-19T04:20:44.902Z,1014.48
2018-09-19T04:21:44.918Z,1014.45
2018-09-19T04:22:44.945Z,1014.45
2018-09-19T04:23:44.968Z,1014.47
2018-09-19T04:24:44.990Z,1014.46
2018-09-19T04:25:45.023Z,1014.42
2018-09-19T04:26:45.038Z,1014.44
2018-09-19T04:27:45.062Z,1014.44
2018-09-19T04:28:45.103Z,1014.46
2018-09-19T04:29:45.110Z,1014.49
2018-09-19T04:30:45.133Z,1014.48
2018-09-19T04:31:45.158Z,1014.49
2018-09-19T04:32:45.184Z,1014.49
2018-09-19T04:33:45.210Z,1014.49
2018-09-19T04:34:45.229Z,1014.47
2018-09-19T04:35:45.254Z,1014.49
2018-09-19T04:36:45.279Z,1014.47
2018-09-19T04:37:45.302Z,1014.43
2018-09-19T04:38:45.324Z,1014.48
2018-09-19T04:39:45.352Z,1014.51
2018-09-19T04:40:45.381Z,1014.46
2018-09-19T04:41:45.403Z,1014.47
2018-09-19T04:42:45.421Z,1014.52
2018-09-19T04:43:45.445Z,1014.48
2018-09-19T04:44:45.472Z,1014.51
2018-09-19T04:45:45.496Z,1014.47
2018-09-19T04:46:45.518Z,1014.51
2018-09-19T04:47:45.541Z,1014.46
2018-09-19T04:48:45.573Z,1014.52
2018-09-19T04:49:45.589Z,1014.53
2018-09-19T04:50:45.615Z,1014.55
2018-09-19T04:51:45.637Z,1014.51
2018-09-19T04:52:45.660Z,1014.56
2018-09-19T04:53:45.684Z,1014.53
2018-09-19T04:54:45.714Z,1014.54
2018-09-19T04:55:45.735Z,1014.53
2018-09-19T04:56:45.758Z,1014.56
2018-09-19T04:57:45.780Z,1014.52
2018-09-19T04:58:45.802Z,1014.59
2018-09-19T04:59:45.829Z,1014.57
2018-09-19T05:00:45.851Z,1014.60
2018-09-19T05:01:45.875Z,1014.61
2018-09-19T05:02:45.900Z,1014.59
2018-09-19T05:03:45.928Z,1014.58
2018-09-19T05:04:45.947Z,1014.53
2018-09-19T05:05:46.017Z,1014.58
2018-09-19T05:06:45.995Z,1014.57
2018-09-19T05:07:46.023Z,1014.57
2018-09-19T05:08:46.044Z,1014.58
2018-09-19T05:09:46.068Z,1014.58
2018-09-19T05:10:46.092Z,1014.63
2018-09-19T05:11:46.114Z,1014.59
2018-09-19T05:12:46.141Z,1014.64
2018-09-19T05:13:46.162Z,1014.63
2018-09-19T05:14:46.190Z,1014.64
2018-09-19T05:15:46.213Z,1014.67
2018-09-19T05:16:46.237Z,1014.66
2018-09-19T05:17:46.261Z,1014.68
2018-09-19T05:18:46.287Z,1014.67
2018-09-19T05:19:46.311Z,1014.74
2018-09-19T05:20:46.335Z,1014.73
2018-09-19T05:21:46.355Z,1014.74
2018-09-19T05:22:46.384Z,1014.78
2018-09-19T05:23:46.404Z,1014.76
2018-09-19T05:24:46.431Z,1014.73
2018-09-19T05:25:46.452Z,1014.74
2018-09-19T05:26:46.482Z,1014.76
2018-09-19T05:27:46.504Z,1014.77
2018-09-19T05:28:46.521Z,1014.76
2018-09-19T05:29:46.547Z,1014.73
2018-09-19T05:30:46.571Z,1014.73
2018-09-19T05:31:46.660Z,1014.68
2018-09-19T05:32:46.654Z,1014.71
2018-09-19T05:33:46.646Z,1014.74
2018-09-19T05:34:46.674Z,1014.67
2018-09-19T05:35:46.692Z,1014.70
2018-09-19T05:36:46.717Z,1014.76
2018-09-19T05:37:46.739Z,1014.76
2018-09-19T05:38:46.764Z,1014.74
2018-09-19T05:39:46.791Z,1014.80
2018-09-19T05:40:46.814Z,1014.79
2018-09-19T05:41:46.836Z,1014.77
2018-09-19T05:42:46.861Z,1014.78
2018-09-19T05:43:46.896Z,1014.75
2018-09-19T05:44:46.911Z,1014.79
2018-09-19T05:45:46.935Z,1014.77
2018-09-19T05:46:46.958Z,1014.79
2018-09-19T05:47:46.985Z,1014.78
2018-09-19T05:48:47.012Z,1014.82
2018-09-19T05:49:47.031Z,1014.90
2018-09-19T05:50:47.059Z,1014.84
2018-09-19T05:51:47.081Z,1014.88
2018-09-19T05:52:47.104Z,1014.87
2018-09-19T05:53:47.128Z,1014.82
2018-09-19T05:54:47.154Z,1014.82
2018-09-19T05:55:47.177Z,1014.86
2018-09-19T05:56:47.202Z,1014.84
2018-09-19T05:57:47.226Z,1014.81
2018-09-19T05:58:47.261Z,1014.82
2018-09-19T05:59:47.277Z,1014.83
2018-09-19T06:00:47.303Z,1014.80
2018-09-19T06:01:47.329Z,1014.78
2018-09-19T06:02:47.350Z,1014.79
2018-09-19T06:03:47.376Z,1014.73
2018-09-19T06:04:47.445Z,1014.71
2018-09-19T06:05:47.427Z,1014.69
2018-09-19T06:06:47.458Z,1014.69
2018-09-19T06:07:47.489Z,1014.65
2018-09-19T06:08:47.505Z,1014.65
2018-09-19T06:09:47.528Z,1014.66
2018-09-19T06:10:47.554Z,1014.68
2018-09-19T06:11:47.581Z,1014.70
2018-09-19T06:12:47.644Z,1014.67
2018-09-19T06:13:47.639Z,1014.71
2018-09-19T06:14:47.655Z,1014.70
2018-09-19T06:15:47.683Z,1014.72
2018-09-19T06:16:47.709Z,1014.72
2018-09-19T06:17:47.732Z,1014.72
2018-09-19T06:18:47.760Z,1014.71
2018-09-19T06:19:47.785Z,1014.71
2018-09-19T06:20:47.823Z,1014.70
2018-09-19T06:21:47.838Z,1014.70
2018-09-19T06:22:47.862Z,1014.75
2018-09-19T06:23:47.893Z,1014.77
2018-09-19T06:24:47.914Z,1014.76
2018-09-19T06:25:47.939Z,1014.80
2018-09-19T06:26:47.989Z,1014.80
2018-09-19T06:27:47.991Z,1014.76
2018-09-19T06:28:48.017Z,1014.76
2018-09-19T06:29:48.039Z,1014.77
2018-09-19T06:30:48.066Z,1014.81
2018-09-19T06:31:48.092Z,1014.79
2018-09-19T06:32:48.165Z,1014.79
2018-09-19T06:33:48.141Z,1014.79
2018-09-19T06:34:48.169Z,1014.79
2018-09-19T06:35:48.198Z,1014.79
2018-09-19T06:36:48.217Z,1014.77
2018-09-19T06:37:48.246Z,1014.81
2018-09-19T06:38:48.269Z,1014.78
2018-09-19T06:39:48.293Z,1014.78
2018-09-19T06:40:48.414Z,1014.80
2018-09-19T06:41:48.346Z,1014.83
2018-09-19T06:42:48.370Z,1014.84
2018-09-19T06:43:48.394Z,1014.81
2018-09-19T06:44:48.418Z,1014.81
2018-09-19T06:45:48.509Z,1014.80
2018-09-19T06:46:48.499Z,1014.84
2018-09-19T06:47:48.497Z,1014.86
2018-09-19T06:48:48.524Z,1014.87
2018-09-19T06:49:48.546Z,1014.87
2018-09-19T06:50:48.573Z,1014.82
2018-09-19T06:51:48.602Z,1014.87
2018-09-19T06:52:48.625Z,1014.87
2018-09-19T06:53:48.653Z,1014.85
2018-09-19T06:54:48.694Z,1014.89
2018-09-19T06:55:48.704Z,1014.90
2018-09-19T06:56:48.727Z,1014.94
2018-09-19T06:57:48.754Z,1014.87
2018-09-19T06:58:48.778Z,1014.87
2018-09-19T06:59:48.833Z,1014.86
2018-09-19T07:00:48.833Z,1014.82
2018-09-19T07:01:48.857Z,1014.81
2018-09-19T07:02:48.885Z,1014.81
2018-09-19T07:03:48.916Z,1014.78
2018-09-19T07:04:48.935Z,1014.78
2018-09-19T07:05:48.987Z,1014.77
2018-09-19T07:06:48.987Z,1014.79
2018-09-19T07:07:49.015Z,1014.76
2018-09-19T07:08:49.041Z,1014.69
2018-09-19T07:09:49.066Z,1014.69
2018-09-19T07:10:49.093Z,1014.71
2018-09-19T07:11:49.118Z,1014.73
2018-09-19T07:12:49.144Z,1014.74
2018-09-19T07:13:49.170Z,1014.67
2018-09-19T07:14:49.196Z,1014.73
2018-09-19T07:15:49.221Z,1014.73
2018-09-19T07:16:49.246Z,1014.78
2018-09-19T07:17:49.273Z,1014.81
2018-09-19T07:18:49.306Z,1014.85
2018-09-19T07:19:49.325Z,1014.91
2018-09-19T07:20:49.355Z,1014.90
2018-09-19T07:21:49.377Z,1014.89
2018-09-19T07:22:49.407Z,1014.88
2018-09-19T07:23:49.473Z,1014.91
2018-09-19T07:24:49.454Z,1014.90
2018-09-19T07:25:49.492Z,1014.89
2018-09-19T07:26:49.508Z,1014.92
2018-09-19T07:27:49.550Z,1014.91
2018-09-19T07:28:49.557Z,1014.89
2018-09-19T07:29:49.585Z,1014.89
2018-09-19T07:30:49.609Z,1014.83
2018-09-19T07:31:49.644Z,1014.88
2018-09-19T07:32:49.660Z,1014.88
2018-09-19T07:33:49.685Z,1014.86
2018-09-19T07:34:49.730Z,1014.85
2018-09-19T07:35:49.766Z,1014.88
2018-09-19T07:36:49.764Z,1014.96
2018-09-19T07:37:49.791Z,1014.97
2018-09-19T07:38:49.813Z,1014.94
2018-09-19T07:39:49.839Z,1014.98
2018-09-19T07:40:49.865Z,1014.97
2018-09-19T07:41:49.888Z,1014.95
2018-09-19T07:42:49.916Z,1014.94
2018-09-19T07:43:49.943Z,1014.94
2018-09-19T07:44:49.966Z,1014.91
2018-09-19T07:45:49.993Z,1014.94
2018-09-19T07:46:50.055Z,1014.95
2018-09-19T07:47:50.073Z,1014.94
2018-09-19T07:48:50.067Z,1014.94
2018-09-19T07:49:50.098Z,1014.98
2018-09-19T07:50:50.122Z,1014.99
2018-09-19T07:51:50.179Z,1014.90
2018-09-19T07:52:50.182Z,1014.95
2018-09-19T07:53:50.197Z,1014.91
2018-09-19T07:54:50.227Z,1014.90
2018-09-19T07:55:50.284Z,1014.93
2018-09-19T07:56:50.323Z,1014.96
2018-09-19T07:57:50.313Z,1014.98
2018-09-19T07:58:50.321Z,1014.99
2018-09-19T07:59:50.347Z,1014.97
2018-09-19T08:00:50.431Z,1014.98
2018-09-19T08:01:50.431Z,1014.97
2018-09-19T08:02:50.424Z,1015.03
2018-09-19T08:03:50.458Z,1015.03
2018-09-19T08:04:50.474Z,1015.03
2018-09-19T08:05:50.499Z,1015.03
2018-09-19T08:06:50.528Z,1015.07
2018-09-19T08:07:50.589Z,1015.07
2018-09-19T08:08:50.584Z,1015.12
2018-09-19T08:09:50.610Z,1015.16
2018-09-19T08:10:50.623Z,1015.11
2018-09-19T08:11:50.661Z,1015.12
2018-09-19T08:12:50.676Z,1015.16
2018-09-19T08:13:50.700Z,1015.19
2018-09-19T08:14:50.729Z,1015.16
2018-09-19T08:15:50.753Z,1015.15
2018-09-19T08:16:50.810Z,1015.19
2018-09-19T08:17:50.802Z,1015.14
2018-09-19T08:18:50.828Z,1015.02
2018-09-19T08:19:50.879Z,1015.10
2018-09-19T08:20:50.877Z,1015.01
2018-09-19T08:21:50.951Z,1015.06
2018-09-19T08:22:50.926Z,1015.04
2018-09-19T08:23:50.951Z,1015.10
2018-09-19T08:24:50.980Z,1015.05
2018-09-19T08:25:51.001Z,1015.02
2018-09-19T08:26:51.027Z,1015.04
2018-09-19T08:27:51.078Z,1015.02
2018-09-19T08:28:51.080Z,1014.96
2018-09-19T08:29:51.106Z,1014.95
2018-09-19T08:30:51.144Z,1014.93
2018-09-19T08:31:51.155Z,1014.94
2018-09-19T08:32:51.177Z,1014.95
2018-09-19T08:33:51.203Z,1014.92
2018-09-19T08:34:51.227Z,1014.90
2018-09-19T08:35:51.253Z,1014.87
2018-09-19T08:36:51.278Z,1014.85
2018-09-19T08:37:51.305Z,1014.92
2018-09-19T08:38:51.328Z,1014.96
2018-09-19T08:39:51.355Z,1014.96
2018-09-19T08:40:51.381Z,1014.95
2018-09-19T08:41:51.405Z,1014.91
2018-09-19T08:42:51.443Z,1014.94
2018-09-19T08:43:51.455Z,1014.92
2018-09-19T08:44:51.477Z,1014.92
2018-09-19T08:45:51.540Z,1014.90
2018-09-19T08:46:51.532Z,1014.84
2018-09-19T08:47:51.556Z,1014.81
2018-09-19T08:48:51.575Z,1014.79
2018-09-19T08:49:51.608Z,1014.76
2018-09-19T08:50:51.629Z,1014.80
2018-09-19T08:51:51.656Z,1014.78
2018-09-19T08:52:51.688Z,1014.73
2018-09-19T08:53:51.707Z,1014.73
2018-09-19T08:54:51.730Z,1014.76
2018-09-19T08:55:51.801Z,1014.80
2018-09-19T08:56:51.819Z,1014.79
2018-09-19T08:57:51.840Z,1014.81
2018-09-19T08:58:51.832Z,1014.81
2018-09-19T08:59:51.892Z,1014.80
2018-09-19T09:00:51.884Z,1014.76
2018-09-19T09:01:51.908Z,1014.85
2018-09-19T09:02:51.938Z,1014.82
2018-09-19T09:03:51.956Z,1014.81
2018-09-19T09:04:51.984Z,1014.87
2018-09-19T09:05:52.008Z,1014.89
2018-09-19T09:06:52.035Z,1014.92
2018-09-19T09:07:52.064Z,1014.97
2018-09-19T09:08:52.081Z,1014.95
2018-09-19T09:09:52.111Z,1015.02
2018-09-19T09:10:52.179Z,1014.97
2018-09-19T09:11:52.164Z,1015.03
2018-09-19T09:12:52.183Z,1015.00
2018-09-19T09:13:52.211Z,1014.97
2018-09-19T09:14:52.233Z,1014.97
2018-09-19T09:15:52.257Z,1015.00
2018-09-19T09:16:52.289Z,1014.87
2018-09-19T09:17:52.311Z,1014.91
2018-09-19T09:18:52.333Z,1014.89
2018-09-19T09:19:52.373Z,1014.89
2018-09-19T09:20:52.381Z,1014.86
2018-09-19T09:21:52.421Z,1014.86
2018-09-19T09:22:52.447Z,1014.80
2018-09-19T09:23:52.457Z,1014.83
2018-09-19T09:24:52.485Z,1014.82
2018-09-19T09:25:52.516Z,1014.78
2018-09-19T09:26:52.648Z,1014.80
2018-09-19T09:27:52.564Z,1014.81
2018-09-19T09:28:52.589Z,1014.74
2018-09-19T09:29:52.612Z,1014.79
2018-09-19T09:30:52.637Z,1014.80
2018-09-19T09:31:52.662Z,1014.81
2018-09-19T09:32:52.688Z,1014.79
2018-09-19T09:33:52.713Z,1014.68
2018-09-19T09:34:52.778Z,1014.66
2018-09-19T09:35:52.766Z,1014.67
2018-09-19T09:36:52.852Z,1014.62
2018-09-19T09:37:52.833Z,1014.59
2018-09-19T09:38:52.837Z,1014.55
2018-09-19T09:39:52.870Z,1014.58
2018-09-19T09:40:52.888Z,1014.53
2018-09-19T09:41:52.915Z,1014.51
2018-09-19T09:42:53.188Z,1014.57
2018-09-19T09:43:52.973Z,1014.58
2018-09-19T09:44:52.989Z,1014.56
2018-09-19T09:45:53.025Z,1014.53
2018-09-19T09:46:53.043Z,1014.57
2018-09-19T09:47:53.065Z,1014.50
2018-09-19T09:48:53.093Z,1014.55
2018-09-19T09:49:53.112Z,1014.48
2018-09-19T09:50:53.139Z,1014.50
2018-09-19T09:51:53.166Z,1014.49
2018-09-19T09:52:53.187Z,1014.48
2018-09-19T09:53:53.221Z,1014.49
2018-09-19T09:54:53.249Z,1014.54
2018-09-19T09:55:53.275Z,1014.51
2018-09-19T09:56:53.292Z,1014.52
2018-09-19T09:57:53.319Z,1014.58
2018-09-19T09:58:53.351Z,1014.56
2018-09-19T09:59:53.370Z,1014.45
2018-09-19T10:00:53.459Z,1014.49
2018-09-19T10:01:53.416Z,1014.51
2018-09-19T10:02:53.443Z,1014.54
2018-09-19T10:03:53.467Z,1014.60
2018-09-19T10:04:53.491Z,1014.63
2018-09-19T10:05:53.518Z,1014.63
2018-09-19T10:06:53.547Z,1014.68
2018-09-19T10:07:53.569Z,1014.65
2018-09-19T10:08:53.597Z,1014.61
2018-09-19T10:09:53.625Z,1014.61
2018-09-19T10:10:53.647Z,1014.63
2018-09-19T10:11:53.671Z,1014.60
2018-09-19T10:12:53.696Z,1014.50
2018-09-19T10:13:53.722Z,1014.50
2018-09-19T10:14:53.759Z,1014.51
2018-09-19T10:15:53.769Z,1014.46
2018-09-19T10:16:53.794Z,1014.37
2018-09-19T10:17:53.819Z,1014.27
2018-09-19T10:18:53.844Z,1014.25
2018-09-19T10:19:53.898Z,1014.25
2018-09-19T10:20:53.903Z,1014.23
2018-09-19T10:21:53.920Z,1014.08
2018-09-19T10:22:53.952Z,1014.09
2018-09-19T10:23:53.973Z,1014.12
2018-09-19T10:24:53.998Z,1014.05
2018-09-19T10:25:54.023Z,1014.10
2018-09-19T10:26:54.085Z,1013.97
2018-09-19T10:27:54.076Z,1014.00
2018-09-19T10:28:54.097Z,1013.89
2018-09-19T10:29:54.122Z,1013.90
2018-09-19T10:30:54.149Z,1013.79
2018-09-19T10:31:54.179Z,1013.78
2018-09-19T10:32:54.209Z,1013.76
2018-09-19T10:33:54.226Z,1013.80
2018-09-19T10:34:54.246Z,1013.80
2018-09-19T10:35:54.932Z,1013.85
2018-09-19T10:36:54.300Z,1013.87
2018-09-19T10:37:54.327Z,1013.86
2018-09-19T10:38:54.352Z,1013.93
2018-09-19T10:39:54.377Z,1013.94
2018-09-19T10:40:54.411Z,1013.92
2018-09-19T10:41:54.428Z,1013.95
2018-09-19T10:42:54.454Z,1013.97
2018-09-19T10:43:54.519Z,1014.00
2018-09-19T10:44:54.507Z,1014.02
2018-09-19T10:45:54.522Z,1014.00
2018-09-19T10:46:54.555Z,1013.97
2018-09-19T10:47:54.580Z,1013.97
2018-09-19T10:48:54.606Z,1013.94
2018-09-19T10:49:54.638Z,1013.93
2018-09-19T10:50:54.678Z,1013.93
2018-09-19T10:51:54.679Z,1013.93
2018-09-19T10:52:54.704Z,1013.90
2018-09-19T10:53:54.732Z,1013.88
2018-09-19T10:54:54.757Z,1013.82
2018-09-19T10:55:54.782Z,1013.87
2018-09-19T10:56:54.853Z,1013.87
2018-09-19T10:57:54.834Z,1013.86
2018-09-19T10:58:54.857Z,1013.75
2018-09-19T10:59:54.887Z,1013.73
2018-09-19T11:00:54.906Z,1013.74
2018-09-19T11:01:54.936Z,1013.65
2018-09-19T11:02:54.958Z,1013.69
2018-09-19T11:03:54.995Z,1013.64
2018-09-19T11:04:55.010Z,1013.68
2018-09-19T11:05:55.031Z,1013.65
2018-09-19T11:06:55.058Z,1013.63
2018-09-19T11:07:55.093Z,1013.69
2018-09-19T11:08:55.111Z,1013.69
2018-09-19T11:09:55.133Z,1013.68
2018-09-19T11:10:55.160Z,1013.73
2018-09-19T11:11:55.184Z,1013.77
2018-09-19T11:12:55.211Z,1013.66
2018-09-19T11:13:55.242Z,1013.77
2018-09-19T11:14:55.261Z,1013.76
2018-09-19T11:15:55.292Z,1013.71
2018-09-19T11:16:55.357Z,1013.74
2018-09-19T11:17:55.334Z,1013.73
2018-09-19T11:18:55.360Z,1013.62
2018-09-19T11:19:55.384Z,1013.63
2018-09-19T11:20:55.413Z,1013.52
2018-09-19T11:21:55.438Z,1013.58
2018-09-19T11:22:55.569Z,1013.61
2018-09-19T11:23:55.524Z,1013.62
2018-09-19T11:24:55.513Z,1013.44
2018-09-19T11:25:55.540Z,1013.49
2018-09-19T11:26:55.563Z,1013.60
2018-09-19T11:27:55.589Z,1013.52
2018-09-19T11:28:55.616Z,1013.55
2018-09-19T11:29:55.641Z,1013.62
2018-09-19T11:30:55.664Z,1013.59
2018-09-19T11:31:55.688Z,1013.53
2018-09-19T11:32:55.717Z,1013.61
2018-09-19T11:33:55.739Z,1013.59
2018-09-19T11:34:55.765Z,1013.60
2018-09-19T11:35:55.789Z,1013.55
2018-09-19T11:36:55.814Z,1013.56
2018-09-19T11:37:55.834Z,1013.56
2018-09-19T11:38:55.865Z,1013.41
2018-09-19T11:39:55.930Z,1013.41
2018-09-19T11:40:55.922Z,1013.55
2018-09-19T11:41:55.945Z,1013.53
2018-09-19T11:42:55.964Z,1013.55
2018-09-19T11:43:55.993Z,1013.57
2018-09-19T11:44:56.023Z,1013.56
2018-09-19T11:45:56.325Z,1013.52
2018-09-19T11:46:56.072Z,1013.45
2018-09-19T11:47:56.097Z,1013.46
2018-09-19T11:48:56.119Z,1013.49
2018-09-19T11:49:56.138Z,1013.55
2018-09-19T11:50:56.173Z,1013.50
2018-09-19T11:51:56.200Z,1013.47
2018-09-19T11:52:56.243Z,1013.48
2018-09-19T11:53:56.242Z,1013.43
2018-09-19T11:54:56.271Z,1013.36
2018-09-19T11:55:56.299Z,1013.30
2018-09-19T11:56:56.318Z,1013.34
2018-09-19T11:57:56.353Z,1013.30
2018-09-19T11:58:56.374Z,1013.25
2018-09-19T11:59:56.398Z,1013.24
2018-09-19T12:00:56.450Z,1013.19
2018-09-19T12:01:56.475Z,1013.09
2018-09-19T12:02:56.477Z,1013.08
2018-09-19T12:03:56.503Z,1013.10
2018-09-19T12:04:56.530Z,1013.09
2018-09-19T12:05:56.548Z,1013.07
2018-09-19T12:06:56.579Z,1013.08